< Typhoon 200911 2009 Season Typhoon 200913 >
Typhoon 200912 (DUJUAN)
General InformationTrack Information on Google MapsDetailed Wind InformationAccess Analytics MapList of All Images || NewsDisaster Info.WeblogTrackbackTyphoon FrontTyphoon ImaginationResourceGoogle EarthGE AnimationAtom FeedGeoJSON
Detalied Best Track (Time Zone = UTC)
Year Month Day Hour Lat. Long. Pressure (hPa) Wind (kt) Class Image Chart
2009 9 2 18 17.5 130.1 996 0 2 Image Chart
2009 9 3 00 17.8 128.9 996 0 2 Image Chart
2009 9 3 06 17.4 127.7 996 0 2 Image Chart
2009 9 3 12 16.9 127.5 994 0 2 Image Chart
2009 9 3 18 17.1 128.2 992 35 3 Image Chart
2009 9 4 00 17.3 128.9 990 40 3 Image Chart
2009 9 4 06 17.7 129.5 990 40 3 Image Chart
2009 9 4 12 18.6 131.2 990 40 3 Image Chart
2009 9 4 18 19.1 131.8 985 45 3 Image Chart
2009 9 5 00 20.0 132.4 980 50 4 Image Chart
2009 9 5 06 21.3 133.6 980 50 4 Image Chart
2009 9 5 12 22.6 134.8 980 50 4 Image Chart
2009 9 5 18 23.4 135.2 980 50 4 Image Chart
2009 9 6 00 24.6 135.3 980 50 4 Image Chart
2009 9 6 06 25.4 135.8 980 50 4 Image Chart
2009 9 6 12 26.0 135.9 980 50 4 Image Chart
2009 9 6 18 26.8 135.9 980 50 4 Image Chart
2009 9 7 00 27.2 135.8 980 50 4 Image Chart
2009 9 7 06 27.9 136.2 980 50 4 Image Chart
2009 9 7 12 28.6 136.5 980 50 4 Image Chart
2009 9 7 18 29.4 137.3 980 50 4 Image Chart
2009 9 8 00 30.4 138.7 980 50 4 Image Chart
2009 9 8 06 31.1 140.4 980 50 4 Image Chart
2009 9 8 12 31.6 142.4 980 50 4 Image Chart
2009 9 8 18 32.3 145.1 980 50 4 Image Chart
2009 9 9 00 33.6 148.6 980 50 4 Image Chart
2009 9 9 06 35.1 152.2 980 50 4 Image Chart
2009 9 9 12 37.0 155.7 980 50 4 Image Chart
2009 9 9 18 39.6 159.8 980 50 4 Image Chart
2009 9 10 00 42.9 163.8 980 50 4 Image Chart
2009 9 10 06 45.5 167.4 980 0 6 Image Chart
2009 9 10 12 47.8 170.7 980 0 6 Image Chart
2009 9 10 18 49.5 174.5 984 0 6 Image Chart
2009 9 11 00 51.2 177.5 986 0 6 Image Chart
2009 9 11 06 53.0 180.0 990 0 6 Image Chart
2009 9 11 12 54.4 181.2 992 0 6 Image Chart
Japan Meteorological Agency Best Track Data | Correction Date : 2009-11-05
< Typhoon 200911 2009 Season Typhoon 200913 >

Help